Time;durP1;ratioP1;P1;durP2;ratioP2;P2;SDS_P1;SDS_P2;PMS_P1;PMS_P2;Temp;Humidity;BMP_temperature;BMP_pressure;BME280_temperature;BME280_humidity;BME280_pressure;Samples;Min_cycle;Max_cycle;Signal;HPM_P1;HPM_P2
2023/04/16 00:01:02;;;;;;;6.18;5.57;;;9.80;99.90;;;;;;5030937;28;20050;-82
2023/04/16 00:03:29;;;;;;;7.20;5.97;;;9.80;99.90;;;;;;5021135;28;20069;-82
2023/04/16 00:05:56;;;;;;;5.35;4.85;;;9.80;99.90;;;;;;5021561;28;20399;-82
2023/04/16 00:08:23;;;;;;;8.10;5.15;;;9.80;99.90;;;;;;5026868;28;20052;-82
2023/04/16 00:10:51;;;;;;;7.50;5.47;;;9.80;99.90;;;;;;5027000;28;20046;-81
2023/04/16 00:13:18;;;;;;;7.72;5.25;;;9.80;99.90;;;;;;5020291;28;20049;-81
2023/04/16 00:15:45;;;;;;;6.63;5.88;;;9.80;99.90;;;;;;5019933;28;20085;-81
2023/04/16 00:18:12;;;;;;;8.52;6.78;;;9.80;99.90;;;;;;5031808;28;20049;-81
2023/04/16 00:20:38;;;;;;;8.23;5.10;;;9.80;99.90;;;;;;5030273;28;20137;-81
2023/04/16 00:23:05;;;;;;;6.93;5.85;;;9.80;99.90;;;;;;5028883;28;20077;-81
2023/04/16 00:25:32;;;;;;;7.75;6.65;;;9.80;99.90;;;;;;5030717;28;20080;-81
2023/04/16 00:27:58;;;;;;;7.60;6.20;;;9.80;99.90;;;;;;5029310;28;20588;-81
2023/04/16 00:30:25;;;;;;;7.20;6.47;;;9.80;99.90;;;;;;5028497;28;20141;-81
2023/04/16 00:32:52;;;;;;;7.10;6.00;;;9.90;99.90;;;;;;5030725;28;20053;-81
2023/04/16 00:35:19;;;;;;;7.47;6.13;;;9.90;99.90;;;;;;5029443;28;20053;-81
2023/04/16 00:37:45;;;;;;;8.93;6.32;;;9.80;99.90;;;;;;5028323;28;20045;-81
2023/04/16 00:40:12;;;;;;;6.82;6.13;;;9.80;99.90;;;;;;5031070;28;20049;-81
2023/04/16 00:42:39;;;;;;;6.30;5.70;;;9.80;99.90;;;;;;5024197;28;20545;-79
2023/04/16 00:45:06;;;;;;;7.80;6.07;;;9.80;99.90;;;;;;5021869;28;20042;-80
2023/04/16 00:47:33;;;;;;;7.45;6.13;;;9.80;99.90;;;;;;5026214;28;20049;-81
2023/04/16 00:50:01;;;;;;;8.60;6.63;;;9.70;99.90;;;;;;5027603;28;20403;-81
2023/04/16 00:52:30;;;;;;;8.15;6.40;;;9.70;99.90;;;;;;5028949;28;20042;-81
2023/04/16 00:54:58;;;;;;;8.55;7.15;;;9.70;99.90;;;;;;5030446;28;20045;-79
2023/04/16 00:57:25;;;;;;;8.00;6.15;;;9.70;99.90;;;;;;5027563;28;20081;-82
2023/04/16 00:59:53;;;;;;;7.90;6.75;;;9.70;99.90;;;;;;5027948;28;20092;-79
2023/04/16 01:02:20;;;;;;;8.57;6.78;;;9.70;99.90;;;;;;5029259;28;20050;-81
2023/04/16 01:04:47;;;;;;;9.40;7.75;;;9.70;99.90;;;;;;5027271;28;20045;-81
2023/04/16 01:07:13;;;;;;;7.82;7.03;;;9.70;99.90;;;;;;5027175;28;20553;-81
2023/04/16 01:09:40;;;;;;;9.25;7.47;;;9.70;99.90;;;;;;5028649;28;20055;-81
2023/04/16 01:12:07;;;;;;;10.00;7.80;;;9.70;99.90;;;;;;5018025;28;20413;-81
2023/04/16 01:14:35;;;;;;;11.02;8.13;;;9.70;99.90;;;;;;5018232;28;20053;-82
2023/04/16 01:17:02;;;;;;;9.48;7.18;;;9.70;99.90;;;;;;5018128;28;20081;-81
2023/04/16 01:19:35;;;;;;;8.63;6.90;;;9.80;99.90;;;;;;5026440;28;20050;-81
2023/04/16 01:22:02;;;;;;;8.27;6.57;;;9.80;99.90;;;;;;5026015;28;20081;-80
2023/04/16 01:24:30;;;;;;;9.63;6.07;;;9.90;99.90;;;;;;5029346;28;20075;-81
2023/04/16 01:26:58;;;;;;;8.50;6.70;;;9.80;99.90;;;;;;5025826;28;20085;-81
2023/04/16 01:29:25;;;;;;;6.82;6.13;;;9.80;99.90;;;;;;5026049;28;20127;-82
2023/04/16 01:31:53;;;;;;;8.55;6.40;;;9.80;99.90;;;;;;5028892;28;20069;-81
2023/04/16 01:34:19;;;;;;;8.75;7.05;;;9.80;99.90;;;;;;5028096;28;20468;-80
2023/04/16 01:36:46;;;;;;;7.32;6.28;;;9.90;99.90;;;;;;5026703;28;20133;-81
2023/04/16 01:39:15;;;;;;;8.48;6.47;;;9.80;99.90;;;;;;5029794;28;20073;-80
2023/04/16 01:41:42;;;;;;;8.52;6.45;;;9.80;99.90;;;;;;5026803;28;20104;-81
2023/04/16 01:44:09;;;;;;;9.77;6.45;;;9.80;99.90;;;;;;5030546;28;20046;-81
2023/04/16 01:46:36;;;;;;;8.55;6.53;;;9.80;99.90;;;;;;5040948;28;20072;-81
2023/04/16 01:49:05;;;;;;;7.05;5.88;;;9.70;99.90;;;;;;5037004;28;20072;-81
2023/04/16 01:51:33;;;;;;;7.13;5.75;;;9.70;99.90;;;;;;5026291;28;20520;-82
2023/04/16 01:54:00;;;;;;;11.63;6.22;;;9.70;99.90;;;;;;5027925;28;20541;-79
2023/04/16 01:56:26;;;;;;;8.05;6.35;;;9.70;99.90;;;;;;5026697;28;20077;-82
2023/04/16 01:58:53;;;;;;;6.47;5.53;;;9.70;99.90;;;;;;5025537;28;20077;-81
2023/04/16 02:01:20;;;;;;;6.72;4.90;;;9.70;99.90;;;;;;5029011;28;20053;-81
2023/04/16 02:03:47;;;;;;;6.03;5.20;;;9.70;99.90;;;;;;5027081;28;20046;-82
2023/04/16 02:06:14;;;;;;;7.40;5.30;;;9.70;99.90;;;;;;5025892;28;20042;-81
2023/04/16 02:08:42;;;;;;;5.20;4.70;;;9.70;99.90;;;;;;5029523;28;20049;-81
2023/04/16 02:11:08;;;;;;;7.15;5.07;;;9.70;99.90;;;;;;5026562;28;20449;-81
2023/04/16 02:13:35;;;;;;;6.50;5.10;;;9.70;99.90;;;;;;5027696;28;20367;-81
2023/04/16 02:16:02;;;;;;;8.40;5.18;;;9.70;99.90;;;;;;5028540;28;20486;-81
2023/04/16 02:18:29;;;;;;;8.38;5.18;;;9.70;99.90;;;;;;5025129;28;20060;-81
2023/04/16 02:20:58;;;;;;;8.27;5.32;;;9.70;99.90;;;;;;5027423;28;20096;-82
2023/04/16 02:23:25;;;;;;;6.43;5.20;;;9.70;99.90;;;;;;5027883;28;20053;-79
2023/04/16 02:25:52;;;;;;;7.32;5.50;;;9.70;99.90;;;;;;5026522;28;20048;-82
2023/04/16 02:28:19;;;;;;;8.10;5.32;;;9.70;99.90;;;;;;5023907;28;20128;-82
2023/04/16 02:30:46;;;;;;;5.75;5.10;;;9.70;99.90;;;;;;5029130;28;20105;-81
2023/04/16 02:33:12;;;;;;;7.13;5.63;;;9.70;99.90;;;;;;5025788;28;20561;-82
2023/04/16 02:35:39;;;;;;;6.68;5.22;;;9.70;99.90;;;;;;5028315;28;20468;-81
2023/04/16 02:38:07;;;;;;;4.90;4.40;;;9.70;99.90;;;;;;5030311;28;20140;-81
2023/04/16 02:40:34;;;;;;;7.75;5.75;;;9.70;99.90;;;;;;5030447;28;20112;-79
2023/04/16 02:43:01;;;;;;;6.30;4.97;;;9.70;99.90;;;;;;5029730;28;20512;-81
2023/04/16 02:45:30;;;;;;;6.30;5.03;;;9.70;99.90;;;;;;5029666;28;20136;-81
2023/04/16 02:47:57;;;;;;;5.88;5.28;;;9.70;99.90;;;;;;5028940;28;20057;-82
2023/04/16 02:50:23;;;;;;;8.95;5.38;;;9.70;99.90;;;;;;5028620;28;20053;-81
2023/04/16 02:52:50;;;;;;;7.40;5.68;;;9.60;99.90;;;;;;5024862;28;20049;-81
2023/04/16 02:55:17;;;;;;;7.95;6.13;;;9.70;99.90;;;;;;5022725;28;20129;-80
2023/04/16 02:57:44;;;;;;;7.75;6.28;;;9.70;99.90;;;;;;5024583;28;20152;-80
2023/04/16 03:00:11;;;;;;;6.72;5.90;;;9.70;99.90;;;;;;5027640;28;20092;-81
2023/04/16 03:02:38;;;;;;;7.72;6.13;;;9.70;99.90;;;;;;5024011;28;20049;-81
2023/04/16 03:05:05;;;;;;;8.93;7.05;;;9.70;99.90;;;;;;5026042;28;20278;-81
2023/04/16 03:07:32;;;;;;;7.38;6.63;;;9.70;99.90;;;;;;5025780;28;20572;-81
2023/04/16 03:09:58;;;;;;;8.63;7.22;;;9.70;99.90;;;;;;5020865;28;20081;-81
2023/04/16 03:12:25;;;;;;;7.82;6.32;;;9.70;99.90;;;;;;5023205;28;20041;-78
2023/04/16 03:14:52;;;;;;;8.38;6.88;;;9.70;99.90;;;;;;5021522;28;20136;-82
2023/04/16 03:17:18;;;;;;;9.43;7.93;;;9.80;99.90;;;;;;5020678;28;20056;-81
2023/04/16 03:19:45;;;;;;;9.55;7.63;;;9.80;99.90;;;;;;5022087;28;20116;-79
2023/04/16 03:22:12;;;;;;;11.07;7.50;;;9.80;99.90;;;;;;5018130;28;20133;-81
2023/04/16 03:24:39;;;;;;;8.98;7.50;;;9.80;99.90;;;;;;5022661;28;20042;-81
2023/04/16 03:27:05;;;;;;;12.32;8.20;;;9.80;99.90;;;;;;5028296;28;20092;-81
2023/04/16 03:29:32;;;;;;;9.77;7.72;;;9.80;99.90;;;;;;5022255;28;20129;-82
2023/04/16 03:31:59;;;;;;;11.30;8.70;;;9.80;99.90;;;;;;5018508;28;20038;-79
2023/04/16 03:34:25;;;;;;;13.13;8.45;;;9.90;99.90;;;;;;5016647;28;20109;-82
2023/04/16 03:36:52;;;;;;;9.90;7.82;;;9.90;99.90;;;;;;5020090;28;20060;-78
2023/04/16 03:39:19;;;;;;;9.20;7.68;;;9.90;99.90;;;;;;5024587;28;20093;-81
2023/04/16 03:41:46;;;;;;;12.00;8.65;;;10.00;99.90;;;;;;5019073;28;20077;-80
2023/04/16 03:44:12;;;;;;;9.77;8.10;;;10.00;99.90;;;;;;5023151;28;20084;-80
2023/04/16 03:46:39;;;;;;;11.77;7.78;;;10.00;99.90;;;;;;5021817;28;20505;-78
2023/04/16 03:49:06;;;;;;;10.98;8.45;;;10.10;99.90;;;;;;5022164;28;20137;-82
2023/04/16 03:51:33;;;;;;;10.80;8.60;;;10.10;99.90;;;;;;5019484;28;20048;-81
2023/04/16 03:54:00;;;;;;;9.48;8.18;;;10.10;99.90;;;;;;5019038;28;20100;-81
2023/04/16 03:56:27;;;;;;;12.07;7.68;;;10.10;99.90;;;;;;5018285;28;20141;-81
2023/04/16 03:58:53;;;;;;;10.93;7.97;;;10.10;99.90;;;;;;5021033;28;20041;-82
2023/04/16 04:01:20;;;;;;;9.65;8.65;;;10.10;99.90;;;;;;5014767;28;20105;-79
2023/04/16 04:03:47;;;;;;;9.38;8.35;;;10.20;99.90;;;;;;5022852;28;20189;-80
2023/04/16 04:06:14;;;;;;;11.32;8.25;;;10.20;99.90;;;;;;5018439;28;20046;-81
2023/04/16 04:08:41;;;;;;;11.02;8.80;;;10.20;99.90;;;;;;5018259;28;20118;-81
2023/04/16 04:11:08;;;;;;;12.18;9.40;;;10.20;99.90;;;;;;5020876;28;20117;-80
2023/04/16 04:13:34;;;;;;;14.82;8.93;;;10.20;99.90;;;;;;5024584;28;20056;-81
2023/04/16 04:16:01;;;;;;;11.88;9.35;;;10.20;99.90;;;;;;5028181;28;20132;-82
2023/04/16 04:18:28;;;;;;;10.95;8.43;;;10.20;99.90;;;;;;5030491;28;20128;-80
2023/04/16 04:20:54;;;;;;;10.93;8.80;;;10.20;99.90;;;;;;5024392;28;20045;-81
2023/04/16 04:23:21;;;;;;;10.90;8.95;;;10.30;99.90;;;;;;5028784;28;20050;-81
2023/04/16 04:25:48;;;;;;;11.20;9.38;;;10.30;99.90;;;;;;5027650;28;20129;-79
2023/04/16 04:28:15;;;;;;;10.63;9.48;;;10.30;99.90;;;;;;5024627;28;20046;-80
2023/04/16 04:30:41;;;;;;;13.02;9.75;;;10.30;99.90;;;;;;5023581;28;20553;-79
2023/04/16 04:33:08;;;;;;;13.80;10.07;;;10.30;99.90;;;;;;5024544;28;20424;-81
2023/04/16 04:35:35;;;;;;;12.05;9.57;;;10.30;99.90;;;;;;5020819;28;20042;-81
2023/04/16 04:38:02;;;;;;;11.60;9.30;;;10.20;99.90;;;;;;5024434;28;20085;-80
2023/04/16 04:40:28;;;;;;;12.45;10.20;;;10.20;99.90;;;;;;5028658;28;20050;-82
2023/04/16 04:42:55;;;;;;;12.10;10.15;;;10.20;99.90;;;;;;5026700;28;20129;-80
2023/04/16 04:45:24;;;;;;;12.30;10.13;;;10.20;99.90;;;;;;5029476;28;20408;-80
2023/04/16 04:47:54;;;;;;;11.63;9.25;;;10.20;99.90;;;;;;5028812;28;20053;-80
2023/04/16 04:50:21;;;;;;;12.40;9.95;;;10.30;99.90;;;;;;5024263;28;20076;-81
2023/04/16 04:52:48;;;;;;;15.38;10.05;;;10.30;99.90;;;;;;5030532;28;20053;-81
2023/04/16 04:55:15;;;;;;;14.27;10.20;;;10.30;99.90;;;;;;5025653;28;20054;-81
2023/04/16 04:57:42;;;;;;;11.45;9.40;;;10.30;99.90;;;;;;5027485;28;20062;-81
2023/04/16 05:00:09;;;;;;;14.18;11.30;;;10.30;99.90;;;;;;5026537;28;20088;-82
2023/04/16 05:02:37;;;;;;;13.70;10.00;;;10.20;99.90;;;;;;5022948;28;20080;-81
2023/04/16 05:05:05;;;;;;;11.52;9.38;;;10.30;99.90;;;;;;5022537;28;20576;-82
2023/04/16 05:07:31;;;;;;;11.82;9.77;;;10.30;99.90;;;;;;5029852;28;20088;-81
2023/04/16 05:09:58;;;;;;;10.25;8.73;;;10.30;99.90;;;;;;5019730;28;20108;-80
2023/04/16 05:12:25;;;;;;;10.80;9.60;;;10.30;99.90;;;;;;5025129;28;20118;-80
2023/04/16 05:14:52;;;;;;;12.25;10.63;;;10.30;99.90;;;;;;5017162;28;20060;-79
2023/04/16 05:17:18;;;;;;;12.32;9.60;;;10.30;99.90;;;;;;5027030;28;20052;-81
2023/04/16 05:19:45;;;;;;;14.77;10.30;;;10.30;99.90;;;;;;5019932;28;20060;-79
2023/04/16 05:22:12;;;;;;;12.38;10.82;;;10.30;99.90;;;;;;5023259;28;20521;-81
2023/04/16 05:24:39;;;;;;;13.63;10.40;;;10.30;99.90;;;;;;5027834;28;20141;-78
2023/04/16 05:27:05;;;;;;;13.23;10.07;;;10.30;99.90;;;;;;5028775;28;20093;-81
2023/04/16 05:29:32;;;;;;;11.73;9.95;;;10.30;99.90;;;;;;5025731;28;20041;-82
2023/04/16 05:31:59;;;;;;;12.20;10.23;;;10.30;99.90;;;;;;5029312;28;20044;-80
2023/04/16 05:34:26;;;;;;;12.07;10.73;;;10.30;99.90;;;;;;5026847;28;20056;-82
2023/04/16 05:36:52;;;;;;;13.43;11.05;;;10.30;99.90;;;;;;5026583;28;20057;-81
2023/04/16 05:39:20;;;;;;;12.07;10.75;;;10.30;99.90;;;;;;5023531;28;20584;-81
2023/04/16 05:41:46;;;;;;;13.52;10.27;;;10.30;99.90;;;;;;5022525;28;20046;-81
2023/04/16 05:44:14;;;;;;;14.32;10.80;;;10.30;99.90;;;;;;5024650;28;20048;-79
2023/04/16 05:46:40;;;;;;;13.70;10.25;;;10.30;99.90;;;;;;5021182;28;20049;-81
2023/04/16 05:49:07;;;;;;;16.08;10.95;;;10.30;99.90;;;;;;5031499;28;20064;-79
2023/04/16 05:51:35;;;;;;;14.48;11.48;;;10.30;99.90;;;;;;5034846;28;20567;-79
2023/04/16 05:54:01;;;;;;;15.05;11.50;;;10.30;99.90;;;;;;5019541;28;20077;-79
2023/04/16 05:56:28;;;;;;;14.90;11.52;;;10.30;99.90;;;;;;5031493;28;20109;-82
2023/04/16 05:58:55;;;;;;;17.55;13.73;;;10.30;99.90;;;;;;5029813;28;20050;-82
2023/04/16 06:01:21;;;;;;;15.45;12.00;;;10.30;99.90;;;;;;5026491;28;20045;-81
2023/04/16 06:03:48;;;;;;;15.48;12.05;;;10.30;99.90;;;;;;5025681;28;20049;-80
2023/04/16 06:06:15;;;;;;;16.88;11.60;;;10.30;99.90;;;;;;5033908;28;20046;-79
2023/04/16 06:08:42;;;;;;;15.13;11.82;;;10.30;99.90;;;;;;5027984;28;20109;-78
2023/04/16 06:11:08;;;;;;;18.17;13.90;;;10.40;99.90;;;;;;5031707;28;20042;-79
2023/04/16 06:13:36;;;;;;;20.23;14.00;;;10.40;99.90;;;;;;5033560;28;20501;-79
2023/04/16 06:16:03;;;;;;;16.67;13.82;;;10.40;99.90;;;;;;5032150;28;20124;-79
2023/04/16 06:18:29;;;;;;;20.02;14.82;;;10.40;99.90;;;;;;5037081;28;20046;-81
2023/04/16 06:20:58;;;;;;;17.85;14.25;;;10.40;99.90;;;;;;5028070;28;20096;-81
2023/04/16 06:23:24;;;;;;;17.40;14.15;;;10.40;99.90;;;;;;5034446;28;20046;-79
2023/04/16 06:25:51;;;;;;;20.30;15.10;;;10.40;99.90;;;;;;5032227;28;20076;-80
2023/04/16 06:28:18;;;;;;;20.38;15.13;;;10.40;99.90;;;;;;5029139;28;20088;-81
2023/04/16 06:30:45;;;;;;;18.98;14.38;;;10.40;99.90;;;;;;5025085;28;20048;-81
2023/04/16 06:33:12;;;;;;;19.38;14.18;;;10.40;99.90;;;;;;5024121;28;20124;-80
2023/04/16 06:35:39;;;;;;;19.60;15.07;;;10.40;99.90;;;;;;5025733;28;20045;-81
2023/04/16 06:38:05;;;;;;;19.60;14.88;;;10.30;99.90;;;;;;5027272;28;20076;-82
2023/04/16 06:40:32;;;;;;;18.60;14.55;;;10.30;99.90;;;;;;5025349;28;20428;-79
2023/04/16 06:42:59;;;;;;;20.25;15.52;;;10.30;99.90;;;;;;5022026;28;20535;-80
2023/04/16 06:45:25;;;;;;;18.88;15.27;;;10.40;99.90;;;;;;5021532;28;20128;-80
2023/04/16 06:47:52;;;;;;;20.38;14.88;;;10.40;99.90;;;;;;5022511;28;20110;-82
2023/04/16 06:50:20;;;;;;;18.70;14.07;;;10.40;99.90;;;;;;5019596;28;20049;-81
2023/04/16 06:52:46;;;;;;;21.63;15.15;;;10.40;99.90;;;;;;5023499;28;20079;-82
2023/04/16 06:55:13;;;;;;;18.15;14.52;;;10.40;99.90;;;;;;5019273;28;20042;-79
2023/04/16 06:57:40;;;;;;;19.65;15.27;;;10.40;99.90;;;;;;5015302;28;20085;-82
2023/04/16 07:00:07;;;;;;;29.98;14.68;;;10.40;99.90;;;;;;5016351;28;20088;-81
2023/04/16 07:02:34;;;;;;;25.08;14.00;;;10.30;99.90;;;;;;5023075;28;20053;-82
2023/04/16 07:05:01;;;;;;;24.42;13.75;;;10.30;99.90;;;;;;5022473;28;20132;-81
2023/04/16 07:07:28;;;;;;;20.85;16.00;;;10.40;99.90;;;;;;5024034;28;20056;-79
2023/04/16 07:09:54;;;;;;;18.40;13.55;;;10.30;99.90;;;;;;5025388;28;20132;-81
2023/04/16 07:12:21;;;;;;;18.80;13.20;;;10.30;99.90;;;;;;5028676;28;20105;-80
2023/04/16 07:14:48;;;;;;;16.95;13.60;;;10.30;99.90;;;;;;5025851;28;20054;-82
2023/04/16 07:17:15;;;;;;;17.77;12.95;;;10.20;99.90;;;;;;5026445;28;20108;-82
2023/04/16 07:19:42;;;;;;;15.60;12.48;;;10.10;99.90;;;;;;5017125;28;20144;-82
2023/04/16 07:22:08;;;;;;;16.48;12.35;;;9.90;99.90;;;;;;5021718;28;20113;-80
2023/04/16 07:24:35;;;;;;;15.90;12.40;;;9.80;99.90;;;;;;5022924;28;20085;-82
2023/04/16 07:27:02;;;;;;;16.05;13.13;;;9.70;99.90;;;;;;5040023;28;20080;-83
2023/04/16 07:29:28;;;;;;;13.35;11.48;;;9.60;99.90;;;;;;5024802;28;20046;-80
2023/04/16 07:31:56;;;;;;;15.25;12.20;;;9.60;99.90;;;;;;5019672;28;20052;-81
2023/04/16 07:34:23;;;;;;;17.75;13.05;;;9.50;99.90;;;;;;5029710;28;20547;-81
2023/04/16 07:36:49;;;;;;;18.02;13.10;;;9.50;99.90;;;;;;5021373;28;20471;-81
2023/04/16 07:39:16;;;;;;;16.95;13.40;;;9.50;99.90;;;;;;5031569;28;20568;-81
2023/04/16 07:41:43;;;;;;;17.00;13.15;;;9.50;99.90;;;;;;5034198;28;20080;-81
2023/04/16 07:44:10;;;;;;;17.05;13.38;;;9.50;99.90;;;;;;5028323;28;20050;-82
2023/04/16 07:46:36;;;;;;;16.58;12.90;;;9.50;99.90;;;;;;5032001;28;20050;-79
2023/04/16 07:49:12;;;;;;;16.77;13.15;;;9.50;99.90;;;;;;5022190;28;20044;-81
2023/04/16 07:51:39;;;;;;;17.25;13.15;;;9.50;99.90;;;;;;5024916;28;20048;-81
2023/04/16 07:54:06;;;;;;;19.75;13.20;;;9.50;99.90;;;;;;5024993;28;20467;-81
2023/04/16 07:56:32;;;;;;;18.15;14.07;;;9.50;99.90;;;;;;5027762;28;20076;-79
2023/04/16 07:58:59;;;;;;;17.33;13.75;;;9.50;99.90;;;;;;5024446;28;20050;-81
2023/04/16 08:01:44;;;;;;;16.75;13.65;;;9.50;99.90;;;;;;5027695;28;20046;-82
2023/04/16 08:04:11;;;;;;;16.95;13.07;;;9.50;99.90;;;;;;5023541;28;20042;-80
2023/04/16 08:06:38;;;;;;;16.13;13.27;;;9.50;99.90;;;;;;5022021;28;20060;-80
2023/04/16 08:09:04;;;;;;;17.55;14.38;;;9.50;99.90;;;;;;5025632;28;20048;-79
2023/04/16 08:11:32;;;;;;;16.55;13.90;;;9.50;99.90;;;;;;5023490;28;20136;-82
2023/04/16 08:13:58;;;;;;;15.40;12.68;;;9.60;99.90;;;;;;5029281;28;20049;-81
2023/04/16 08:16:25;;;;;;;16.08;12.48;;;9.50;99.90;;;;;;5037257;28;20052;-81
2023/04/16 08:18:52;;;;;;;14.20;11.98;;;9.60;99.90;;;;;;5029333;28;20060;-81
2023/04/16 08:21:18;;;;;;;15.88;12.13;;;9.60;99.90;;;;;;5035890;28;20051;-81
2023/04/16 08:23:45;;;;;;;14.95;12.00;;;9.60;99.90;;;;;;5027603;28;20071;-79
2023/04/16 08:26:12;;;;;;;15.40;11.57;;;9.60;99.90;;;;;;5028222;28;20132;-81
2023/04/16 08:28:38;;;;;;;15.52;12.13;;;9.50;99.90;;;;;;5025386;28;20105;-81
2023/04/16 08:31:05;;;;;;;16.15;12.82;;;9.40;99.90;;;;;;5027055;28;20128;-79
2023/04/16 08:33:32;;;;;;;19.02;13.95;;;9.40;99.90;;;;;;5026276;28;20042;-80
2023/04/16 08:35:59;;;;;;;19.30;14.20;;;9.30;99.90;;;;;;5025036;28;20055;-82
2023/04/16 08:38:26;;;;;;;18.40;13.60;;;9.30;99.90;;;;;;5031834;28;20124;-80
2023/04/16 08:40:55;;;;;;;17.05;13.10;;;9.20;99.90;;;;;;5026849;28;20149;-81
2023/04/16 08:43:22;;;;;;;18.80;13.13;;;9.30;99.90;;;;;;5033279;28;20498;-81
2023/04/16 08:45:52;;;;;;;16.10;12.02;;;9.30;99.90;;;;;;5020905;28;20084;-81
2023/04/16 08:48:20;;;;;;;17.47;11.40;;;9.20;99.90;;;;;;5027885;28;20120;-81
2023/04/16 08:50:51;;;;;;;15.25;11.82;;;9.20;99.90;;;;;;5021827;28;20090;-80
2023/04/16 08:53:28;;;;;;;15.65;10.23;;;9.20;99.90;;;;;;5031711;28;20050;-80
2023/04/16 08:56:01;;;;;;;16.35;11.88;;;9.20;99.90;;;;;;5032482;28;20085;-81
2023/04/16 08:58:32;;;;;;;13.25;10.77;;;9.10;99.90;;;;;;5027441;28;20050;-80
2023/04/16 09:01:02;;;;;;;15.70;11.15;;;9.10;99.90;;;;;;5024081;28;20137;-83
2023/04/16 09:03:31;;;;;;;16.80;11.13;;;9.10;99.90;;;;;;5026611;28;20069;-81
2023/04/16 09:06:03;;;;;;;17.63;11.75;;;9.10;99.90;;;;;;5028183;28;20041;-80
2023/04/16 09:08:31;;;;;;;13.88;9.82;;;9.20;99.90;;;;;;5024854;28;20050;-81
2023/04/16 09:10:58;;;;;;;14.68;11.07;;;9.20;99.90;;;;;;5023536;28;20440;-80
2023/04/16 09:13:25;;;;;;;17.48;10.63;;;9.20;99.90;;;;;;5033018;28;20137;-80
2023/04/16 09:15:53;;;;;;;15.40;10.02;;;9.30;99.90;;;;;;5029996;28;20072;-82
2023/04/16 09:18:20;;;;;;;12.27;10.07;;;9.40;99.90;;;;;;5025090;28;20045;-81
2023/04/16 09:20:48;;;;;;;14.85;10.63;;;9.40;99.90;;;;;;5020721;28;20144;-81
2023/04/16 09:23:15;;;;;;;13.73;10.52;;;9.40;99.90;;;;;;5034545;28;20041;-81
2023/04/16 09:25:42;;;;;;;15.52;11.02;;;9.40;99.90;;;;;;5018942;28;20073;-81
2023/04/16 09:28:09;;;;;;;16.08;11.60;;;9.50;99.90;;;;;;5029426;28;20042;-81
2023/04/16 09:30:36;;;;;;;17.70;12.80;;;9.50;99.90;;;;;;5028746;28;20065;-80
2023/04/16 09:33:21;;;;;;;17.42;11.93;;;9.50;99.90;;;;;;5027008;28;20501;-81
2023/04/16 09:35:50;;;;;;;12.95;9.65;;;9.60;99.90;;;;;;5023579;28;20513;-80
2023/04/16 09:38:18;;;;;;;14.63;10.23;;;9.60;99.90;;;;;;5030620;28;20045;-80
2023/04/16 09:40:46;;;;;;;13.30;10.30;;;9.50;99.90;;;;;;5028028;28;20126;-80
2023/04/16 09:43:17;;;;;;;12.90;9.93;;;9.50;99.90;;;;;;5024761;28;20398;-81
2023/04/16 09:45:54;;;;;;;16.75;9.85;;;9.50;99.90;;;;;;5018563;28;20141;-83
2023/04/16 09:48:32;;;;;;;12.27;9.70;;;9.50;99.90;;;;;;5021943;28;20050;-81
2023/04/16 09:51:00;;;;;;;14.80;9.40;;;9.40;99.90;;;;;;5029753;28;20077;-81
2023/04/16 09:53:29;;;;;;;13.77;10.77;;;9.40;99.90;;;;;;5025756;28;20076;-81
2023/04/16 09:56:01;;;;;;;14.00;10.95;;;9.30;99.90;;;;;;5027908;28;20513;-82
2023/04/16 09:58:28;;;;;;;14.93;11.52;;;9.40;99.90;;;;;;5029210;28;20077;-82
2023/04/16 10:01:06;;;;;;;14.70;10.57;;;9.40;99.90;;;;;;5022017;28;20107;-81
2023/04/16 10:03:35;;;;;;;14.30;10.35;;;9.40;99.90;;;;;;5030274;28;20042;-81
2023/04/16 10:06:24;;;;;;;15.65;10.98;;;9.40;99.90;;;;;;5034370;28;20088;-82
2023/04/16 10:08:52;;;;;;;15.07;10.27;;;9.40;99.90;;;;;;5027138;28;20050;-82
2023/04/16 10:11:20;;;;;;;15.85;11.05;;;9.40;99.90;;;;;;5031317;28;20097;-80
2023/04/16 10:13:47;;;;;;;14.20;10.52;;;9.40;99.90;;;;;;5034139;28;20505;-79
2023/04/16 10:16:14;;;;;;;14.77;11.02;;;9.50;99.90;;;;;;5034020;28;20081;-79
2023/04/16 10:18:42;;;;;;;19.60;11.85;;;9.50;99.90;;;;;;5023181;28;20432;-78
2023/04/16 10:21:14;;;;;;;20.02;13.73;;;9.50;99.90;;;;;;5022520;28;20072;-79
2023/04/16 10:23:42;;;;;;;15.73;11.52;;;9.60;99.90;;;;;;5021310;28;20517;-79
2023/04/16 10:26:08;;;;;;;16.30;11.32;;;9.70;99.90;;;;;;5022800;28;20050;-79
2023/04/16 10:28:36;;;;;;;15.30;10.73;;;9.70;99.90;;;;;;5024647;28;20070;-80
2023/04/16 10:31:06;;;;;;;15.45;11.48;;;9.70;99.90;;;;;;5019489;28;20125;-84
2023/04/16 10:33:38;;;;;;;;;;;9.70;99.90;;;;;;5025871;28;20128;-81
2023/04/16 10:36:14;;;;;;;13.98;10.38;;;9.70;99.90;;;;;;5027499;28;19948;-79
2023/04/16 10:38:45;;;;;;;14.90;10.73;;;9.60;99.90;;;;;;5023485;28;20050;-78
2023/04/16 10:41:13;;;;;;;14.57;11.27;;;9.60;99.90;;;;;;5022423;28;20059;-81
2023/04/16 10:43:44;;;;;;;15.98;12.02;;;9.60;99.90;;;;;;5026915;28;20057;-80
2023/04/16 10:46:39;;;;;;;16.52;11.75;;;9.60;99.90;;;;;;5022958;28;20045;-79
2023/04/16 10:49:16;;;;;;;18.25;12.18;;;9.70;99.90;;;;;;5020907;28;20117;-80
2023/04/16 10:51:55;;;;;;;13.50;10.48;;;9.70;99.90;;;;;;5027975;28;20076;-79
2023/04/16 10:54:26;;;;;;;15.25;11.55;;;9.70;99.90;;;;;;5024311;28;20049;-79
2023/04/16 10:56:56;;;;;;;15.65;11.75;;;9.70;99.90;;;;;;5025074;28;20068;-81
2023/04/16 10:59:23;;;;;;;13.88;11.43;;;9.70;99.90;;;;;;5029874;28;20076;-81
2023/04/16 11:01:55;;;;;;;17.05;9.95;;;9.70;99.90;;;;;;5019971;28;20128;-79
2023/04/16 11:04:28;;;;;;;12.52;8.73;;;9.50;99.90;;;;;;5034805;28;20505;-80
2023/04/16 11:07:03;;;;;;;15.18;9.77;;;9.50;99.90;;;;;;5027900;28;20050;-82
2023/04/16 11:09:50;;;;;;;13.38;8.57;;;9.50;99.90;;;;;;5033463;28;20660;-80
2023/04/16 11:12:28;;;;;;;11.80;9.05;;;9.50;99.90;;;;;;5019134;28;20046;-80
2023/04/16 11:15:02;;;;;;;10.77;8.43;;;9.60;99.90;;;;;;5029798;28;20523;-79
2023/04/16 11:17:32;;;;;;;13.63;9.13;;;9.60;99.90;;;;;;5025613;28;20524;-83
2023/04/16 11:19:59;;;;;;;12.05;9.18;;;9.60;99.90;;;;;;5027455;28;20057;-80
2023/04/16 11:22:26;;;;;;;15.40;9.40;;;9.60;99.90;;;;;;5027117;28;20054;-81
2023/04/16 11:24:55;;;;;;;11.63;8.55;;;9.60;99.90;;;;;;5032227;28;20088;-78
2023/04/16 11:27:23;;;;;;;16.20;9.40;;;9.60;99.90;;;;;;5030737;28;20073;-81
2023/04/16 11:30:00;;;;;;;12.07;9.10;;;9.70;99.90;;;;;;5031559;28;20120;-78
2023/04/16 11:32:33;;;;;;;15.15;9.70;;;9.70;99.90;;;;;;5027788;28;20493;-80
2023/04/16 11:35:12;;;;;;;14.77;9.88;;;9.60;99.90;;;;;;5024909;28;20100;-78
2023/04/16 11:37:39;;;;;;;16.20;10.65;;;9.60;99.90;;;;;;5028164;28;20084;-79
2023/04/16 11:40:07;;;;;;;13.70;9.15;;;9.60;99.90;;;;;;5021830;28;20092;-79
2023/04/16 11:42:37;;;;;;;17.38;11.38;;;9.40;99.90;;;;;;5025385;28;20073;-81
2023/04/16 11:45:04;;;;;;;16.50;11.10;;;9.30;99.90;;;;;;5032125;28;20045;-81
2023/04/16 11:47:31;;;;;;;16.27;11.40;;;9.20;99.90;;;;;;5033438;28;20048;-81
2023/04/16 11:50:23;;;;;;;18.02;11.50;;;9.10;99.90;;;;;;5035354;28;20421;-81
2023/04/16 11:52:52;;;;;;;18.92;12.00;;;9.20;99.90;;;;;;5031857;28;20109;-79
2023/04/16 11:55:19;;;;;;;19.00;12.68;;;9.20;99.90;;;;;;5027490;28;20069;-81
2023/04/16 11:57:46;;;;;;;18.95;11.15;;;9.20;99.90;;;;;;5030460;28;20105;-81
2023/04/16 12:00:13;;;;;;;22.17;12.55;;;9.20;99.90;;;;;;5030449;28;20060;-79
2023/04/16 12:02:45;;;;;;;23.00;11.90;;;9.20;99.90;;;;;;5027741;28;20125;-80
2023/04/16 12:05:32;;;;;;;17.92;11.50;;;9.30;99.90;;;;;;5029067;28;20052;-82
2023/04/16 12:08:07;;;;;;;20.08;11.90;;;9.40;99.90;;;;;;5029189;28;20050;-82
2023/04/16 12:10:54;;;;;;;16.08;11.48;;;9.50;99.90;;;;;;5031287;28;20128;-80
2023/04/16 12:13:21;;;;;;;18.63;12.32;;;9.60;99.90;;;;;;5026812;28;20158;-79
2023/04/16 12:15:50;;;;;;;18.35;11.20;;;9.70;99.90;;;;;;5027042;28;20136;-78
2023/04/16 12:18:19;;;;;;;16.85;11.50;;;9.90;99.90;;;;;;5029036;28;20069;-82
2023/04/16 12:20:46;;;;;;;15.90;10.23;;;9.90;99.90;;;;;;5035664;28;20057;-82
2023/04/16 12:23:27;;;;;;;18.35;11.43;;;10.00;99.90;;;;;;5027756;28;20138;-82
2023/04/16 12:25:55;;;;;;;16.98;11.40;;;10.00;99.90;;;;;;5022567;28;20073;-80
2023/04/16 12:28:32;;;;;;;13.98;9.88;;;10.20;99.90;;;;;;5023234;28;20069;-83
2023/04/16 12:31:00;;;;;;;17.75;11.15;;;10.20;99.90;;;;;;5032253;28;20045;-83
2023/04/16 12:33:27;;;;;;;17.88;10.10;;;10.30;99.90;;;;;;5028800;28;20050;-83
2023/04/16 12:35:54;;;;;;;12.57;9.35;;;10.40;99.90;;;;;;5030907;28;20087;-83
2023/04/16 12:38:20;;;;;;;16.13;11.43;;;10.50;99.90;;;;;;5027761;28;20481;-82
2023/04/16 12:40:50;;;;;;;15.18;9.88;;;10.60;99.90;;;;;;5033437;28;20573;-81
2023/04/16 12:43:18;;;;;;;15.43;11.25;;;10.60;99.90;;;;;;5026192;28;20157;-83
2023/04/16 12:45:45;;;;;;;15.15;10.73;;;10.70;99.90;;;;;;5024220;28;20057;-80